Time;durP1;ratioP1;P1;durP2;ratioP2;P2;SDS_P1;SDS_P2;PMS_P1;PMS_P2;Temp;Humidity;BMP_temperature;BMP_pressure;BME280_temperature;BME280_humidity;BME280_pressure;Samples;Min_cycle;Max_cycle;Signal;HPM_P1;HPM_P2
2024/04/02 00:01:04;;;;;;;0.60;0.60;;;14.80;51.50;;;;;;5016658;28;20233;-59
2024/04/02 00:03:30;;;;;;;0.70;0.70;;;14.80;51.50;;;;;;5026322;28;20605;-59
2024/04/02 00:05:56;;;;;;;1.37;0.83;;;14.80;51.50;;;;;;5022214;28;20237;-59
2024/04/02 00:08:22;;;;;;;0.60;0.60;;;14.70;51.50;;;;;;5018293;28;20214;-59
2024/04/02 00:10:49;;;;;;;1.07;0.73;;;14.70;51.50;;;;;;5009836;28;20564;-59
2024/04/02 00:13:15;;;;;;;0.83;0.70;;;14.70;51.50;;;;;;5021745;28;20211;-59
2024/04/02 00:15:45;;;;;;;0.70;0.70;;;14.80;51.50;;;;;;5013228;28;20660;-59
2024/04/02 00:18:12;;;;;;;0.70;0.70;;;14.80;51.50;;;;;;5027251;28;20210;-59
2024/04/02 00:20:39;;;;;;;0.60;0.60;;;14.70;51.50;;;;;;5016946;28;20319;-59
2024/04/02 00:23:05;;;;;;;1.00;0.80;;;14.80;51.50;;;;;;5027512;28;20210;-59
2024/04/02 00:25:32;;;;;;;0.73;0.73;;;14.80;51.50;;;;;;5020715;28;20235;-59
2024/04/02 00:27:58;;;;;;;1.33;0.80;;;14.70;51.50;;;;;;5012593;28;20203;-59
2024/04/02 00:30:25;;;;;;;0.83;0.83;;;14.70;51.50;;;;;;5018495;28;20237;-59
2024/04/02 00:32:52;;;;;;;1.73;0.60;;;14.80;51.50;;;;;;5025575;28;20209;-59
2024/04/02 00:35:20;;;;;;;0.87;0.60;;;14.70;51.50;;;;;;5021302;28;20204;-59
2024/04/02 00:37:47;;;;;;;0.60;0.60;;;14.80;51.60;;;;;;5017431;28;20214;-59
2024/04/02 00:40:14;;;;;;;0.87;0.80;;;14.70;51.60;;;;;;5014224;28;20233;-58
2024/04/02 00:42:39;;;;;;;1.03;0.87;;;14.70;51.60;;;;;;5024838;28;20230;-59
2024/04/02 00:45:07;;;;;;;0.87;0.60;;;14.80;51.70;;;;;;5014600;28;20283;-58
2024/04/02 00:47:33;;;;;;;0.90;0.67;;;14.80;51.70;;;;;;5012420;28;20216;-58
2024/04/02 00:50:00;;;;;;;0.80;0.80;;;14.80;51.60;;;;;;5019754;28;20644;-58
2024/04/02 00:52:28;;;;;;;1.10;0.90;;;14.70;51.70;;;;;;5012461;28;20206;-58
2024/04/02 00:54:56;;;;;;;0.70;0.70;;;14.70;51.70;;;;;;5028220;28;20276;-58
2024/04/02 00:57:22;;;;;;;0.90;0.70;;;14.70;51.70;;;;;;5010241;28;20203;-59
2024/04/02 00:59:49;;;;;;;1.37;0.70;;;14.80;51.70;;;;;;5025640;28;20205;-58
2024/04/02 01:02:15;;;;;;;1.93;0.90;;;14.70;51.70;;;;;;5023512;28;20206;-59
2024/04/02 01:04:42;;;;;;;1.00;0.70;;;14.70;51.70;;;;;;5012457;28;20210;-58
2024/04/02 01:07:08;;;;;;;0.50;0.50;;;14.70;51.70;;;;;;5023809;28;20230;-58
2024/04/02 01:09:36;;;;;;;0.63;0.50;;;14.70;51.70;;;;;;5020989;28;20216;-58
2024/04/02 01:12:04;;;;;;;2.03;0.73;;;14.70;51.70;;;;;;5019809;28;20230;-58
2024/04/02 01:14:31;;;;;;;2.17;0.80;;;14.70;51.70;;;;;;5018671;28;20253;-58
2024/04/02 01:16:57;;;;;;;0.90;0.70;;;14.70;51.70;;;;;;5018653;28;20569;-58
2024/04/02 01:19:24;;;;;;;1.37;0.93;;;14.70;51.80;;;;;;5025149;28;20204;-59
2024/04/02 01:21:49;;;;;;;0.60;0.60;;;14.70;51.70;;;;;;5021495;28;20225;-58
2024/04/02 01:24:16;;;;;;;0.73;0.70;;;14.70;51.70;;;;;;5017379;28;20728;-58
2024/04/02 01:26:43;;;;;;;1.37;0.80;;;14.70;51.80;;;;;;5015609;28;20591;-58
2024/04/02 01:29:10;;;;;;;0.87;0.80;;;14.70;51.80;;;;;;5016768;28;20213;-59
2024/04/02 01:31:36;;;;;;;1.20;0.80;;;14.70;51.80;;;;;;5032527;28;20241;-58
2024/04/02 01:34:02;;;;;;;1.17;0.80;;;14.70;51.70;;;;;;5025081;28;20691;-58
2024/04/02 01:36:28;;;;;;;2.50;0.87;;;14.70;51.80;;;;;;5008507;28;20581;-58
2024/04/02 01:38:55;;;;;;;0.60;0.60;;;14.70;51.80;;;;;;5024781;28;20213;-59
2024/04/02 01:41:21;;;;;;;1.00;0.67;;;14.70;51.80;;;;;;5028793;28;20226;-59
2024/04/02 01:43:49;;;;;;;0.50;0.50;;;14.70;51.80;;;;;;5021433;28;20210;-59
2024/04/02 01:46:15;;;;;;;1.30;0.70;;;14.70;51.80;;;;;;5020972;28;20249;-59
2024/04/02 01:48:41;;;;;;;1.43;0.70;;;14.70;51.80;;;;;;5011553;28;20687;-59
2024/04/02 01:51:07;;;;;;;0.80;0.60;;;14.70;51.80;;;;;;5013312;28;20295;-59
2024/04/02 01:53:34;;;;;;;0.60;0.60;;;14.70;51.80;;;;;;5028697;28;20655;-59
2024/04/02 01:56:00;;;;;;;1.10;1.00;;;14.70;51.90;;;;;;5023384;28;20205;-59
2024/04/02 01:58:26;;;;;;;0.67;0.67;;;14.70;51.80;;;;;;5013568;28;20201;-59
2024/04/02 02:00:54;;;;;;;0.60;0.60;;;14.70;51.90;;;;;;5012481;28;20313;-59
2024/04/02 02:03:20;;;;;;;2.07;0.83;;;14.70;51.90;;;;;;5021941;28;20206;-59
2024/04/02 02:05:46;;;;;;;0.73;0.50;;;14.70;51.90;;;;;;5011388;28;20222;-59
2024/04/02 02:08:13;;;;;;;1.20;0.67;;;14.70;51.90;;;;;;5023365;28;20276;-59
2024/04/02 02:10:39;;;;;;;1.47;0.80;;;14.70;51.90;;;;;;5023079;28;20225;-59
2024/04/02 02:13:08;;;;;;;0.70;0.70;;;14.70;51.90;;;;;;5022313;28;20535;-59
2024/04/02 02:15:33;;;;;;;0.67;0.53;;;14.70;51.90;;;;;;5026417;28;20300;-59
2024/04/02 02:18:02;;;;;;;0.60;0.60;;;14.70;51.90;;;;;;5020708;28;20292;-59
2024/04/02 02:20:27;;;;;;;0.83;0.73;;;14.70;51.90;;;;;;5014217;28;20231;-59
2024/04/02 02:22:54;;;;;;;1.60;0.63;;;14.70;52.20;;;;;;5023245;28;20585;-59
2024/04/02 02:25:20;;;;;;;1.43;0.80;;;14.70;52.00;;;;;;5022775;28;20218;-59
2024/04/02 02:27:47;;;;;;;0.87;0.70;;;14.70;52.00;;;;;;5019768;28;20213;-59
2024/04/02 02:30:12;;;;;;;2.40;0.70;;;14.70;52.00;;;;;;5020257;28;20601;-59
2024/04/02 02:32:39;;;;;;;0.70;0.70;;;14.70;52.00;;;;;;5025521;28;20210;-59
2024/04/02 02:35:06;;;;;;;0.70;0.70;;;14.70;52.00;;;;;;5008923;28;20210;-59
2024/04/02 02:37:33;;;;;;;0.67;0.67;;;14.70;52.00;;;;;;5021277;28;20238;-59
2024/04/02 02:39:59;;;;;;;0.53;0.53;;;14.70;52.00;;;;;;5016404;28;20229;-59
2024/04/02 02:42:26;;;;;;;0.53;0.53;;;14.70;52.00;;;;;;5022626;28;20205;-59
2024/04/02 02:44:52;;;;;;;1.90;0.57;;;14.70;52.10;;;;;;5031273;28;20210;-59
2024/04/02 02:47:19;;;;;;;0.70;0.60;;;14.70;52.00;;;;;;5017148;28;20236;-59
2024/04/02 02:49:45;;;;;;;1.60;0.80;;;14.70;52.10;;;;;;5028301;28;20363;-59
2024/04/02 02:52:13;;;;;;;1.33;0.70;;;14.70;52.00;;;;;;5024279;28;20295;-59
2024/04/02 02:54:39;;;;;;;0.67;0.67;;;14.70;52.00;;;;;;5026738;28;20206;-59
2024/04/02 02:57:06;;;;;;;0.50;0.50;;;14.70;52.10;;;;;;5027183;28;20608;-59
2024/04/02 02:59:32;;;;;;;0.50;0.50;;;14.70;52.10;;;;;;5023410;28;20241;-59
2024/04/02 03:01:58;;;;;;;0.80;0.77;;;14.70;52.10;;;;;;5031208;28;20233;-59
2024/04/02 03:04:24;;;;;;;2.40;0.57;;;14.70;52.10;;;;;;5024373;28;20225;-59
2024/04/02 03:06:51;;;;;;;0.50;0.50;;;14.70;52.10;;;;;;5021501;28;20315;-59
2024/04/02 03:09:18;;;;;;;0.87;0.50;;;14.70;52.80;;;;;;5027467;28;20213;-58
2024/04/02 03:11:45;;;;;;;1.00;0.60;;;14.60;52.00;;;;;;5016519;28;20262;-59
2024/04/02 03:14:10;;;;;;;0.70;0.70;;;14.70;52.10;;;;;;5025550;28;20213;-59
2024/04/02 03:16:37;;;;;;;0.70;0.70;;;14.70;52.10;;;;;;5025204;28;20575;-59
2024/04/02 03:19:03;;;;;;;0.77;0.60;;;14.70;52.10;;;;;;5021592;28;20210;-59
2024/04/02 03:21:30;;;;;;;1.27;0.90;;;14.70;52.10;;;;;;5018076;28;20220;-59
2024/04/02 03:23:56;;;;;;;0.50;0.50;;;14.70;52.10;;;;;;5016048;28;20216;-59
2024/04/02 03:26:24;;;;;;;0.60;0.50;;;14.70;52.20;;;;;;5019976;28;20230;-59
2024/04/02 03:28:50;;;;;;;0.70;0.70;;;14.60;52.00;;;;;;5026211;28;20780;-59
2024/04/02 03:31:17;;;;;;;0.60;0.60;;;14.60;52.00;;;;;;5025790;28;20225;-59
2024/04/02 03:33:42;;;;;;;0.53;0.53;;;14.60;52.00;;;;;;5024978;28;20647;-59
2024/04/02 03:36:10;;;;;;;0.73;0.73;;;14.60;52.00;;;;;;5034097;28;20200;-59
2024/04/02 03:38:36;;;;;;;1.70;0.73;;;14.60;52.10;;;;;;5019295;28;20210;-59
2024/04/02 03:41:10;;;;;;;0.60;0.50;;;14.60;52.00;;;;;;5019910;28;20228;-59
2024/04/02 03:43:40;;;;;;;0.50;0.47;;;14.60;52.00;;;;;;5019847;28;20214;-59
2024/04/02 03:46:07;;;;;;;0.50;0.50;;;14.60;52.00;;;;;;5030499;28;20230;-59
2024/04/02 03:48:33;;;;;;;0.60;0.60;;;14.60;52.00;;;;;;5027825;28;20205;-59
2024/04/02 03:51:00;;;;;;;0.60;0.60;;;14.60;52.10;;;;;;5024453;28;20240;-59
2024/04/02 03:53:26;;;;;;;0.83;0.60;;;14.60;52.00;;;;;;5024054;28;20675;-58
2024/04/02 03:55:57;;;;;;;1.20;0.60;;;14.60;52.10;;;;;;5019990;28;20211;-59
2024/04/02 03:58:24;;;;;;;1.37;0.70;;;14.60;52.10;;;;;;5023413;28;20712;-59
2024/04/02 04:00:54;;;;;;;0.70;0.70;;;14.60;52.00;;;;;;5031064;28;20234;-59
2024/04/02 04:03:21;;;;;;;0.60;0.60;;;14.60;52.00;;;;;;5015841;28;20217;-58
2024/04/02 04:05:46;;;;;;;0.63;0.40;;;14.60;52.00;;;;;;5014386;28;20199;-59
2024/04/02 04:08:13;;;;;;;0.67;0.67;;;14.60;52.10;;;;;;5022398;28;20227;-59
2024/04/02 04:10:39;;;;;;;1.30;0.70;;;14.60;52.00;;;;;;5027792;28;20221;-59
2024/04/02 04:13:06;;;;;;;0.80;0.70;;;14.60;52.00;;;;;;5024963;28;20642;-58
2024/04/02 04:15:32;;;;;;;2.53;0.67;;;14.60;52.10;;;;;;5028442;28;20212;-58
2024/04/02 04:18:00;;;;;;;2.10;0.53;;;14.60;52.10;;;;;;5022137;28;20221;-58
2024/04/02 04:20:29;;;;;;;0.60;0.60;;;14.60;52.00;;;;;;5028876;28;20231;-58
2024/04/02 04:22:56;;;;;;;0.60;0.60;;;14.60;52.00;;;;;;5020302;28;20255;-58
2024/04/02 04:25:21;;;;;;;0.50;0.50;;;14.60;52.10;;;;;;5019095;28;20210;-58
2024/04/02 04:27:48;;;;;;;0.60;0.60;;;14.60;52.10;;;;;;5022646;28;20229;-58
2024/04/02 04:30:14;;;;;;;0.93;0.63;;;14.60;52.00;;;;;;5033363;28;20255;-59
2024/04/02 04:32:41;;;;;;;0.70;0.70;;;14.60;52.10;;;;;;5033835;28;20669;-59
2024/04/02 04:35:08;;;;;;;0.70;0.70;;;14.60;52.10;;;;;;5022142;28;20213;-59
2024/04/02 04:37:35;;;;;;;0.50;0.50;;;14.60;52.00;;;;;;5020357;28;20255;-59
2024/04/02 04:40:00;;;;;;;0.60;0.60;;;14.60;52.00;;;;;;5023613;28;20728;-59
2024/04/02 04:42:29;;;;;;;0.53;0.53;;;14.60;52.00;;;;;;5025867;28;20203;-59
2024/04/02 04:44:54;;;;;;;0.37;0.30;;;14.60;52.10;;;;;;5022242;28;20225;-59
2024/04/02 04:47:21;;;;;;;0.50;0.50;;;14.60;52.10;;;;;;5013504;28;20226;-59
2024/04/02 04:49:47;;;;;;;0.50;0.50;;;14.60;52.00;;;;;;5014708;28;20577;-59
2024/04/02 04:52:17;;;;;;;0.70;0.70;;;14.60;52.00;;;;;;5021162;28;20206;-59
2024/04/02 04:54:42;;;;;;;0.87;0.60;;;14.60;52.00;;;;;;5012393;28;20210;-59
2024/04/02 04:57:09;;;;;;;0.70;0.60;;;14.60;52.00;;;;;;5023828;28;20228;-59
2024/04/02 04:59:35;;;;;;;0.80;0.50;;;14.60;52.10;;;;;;5018017;28;20216;-59
2024/04/02 05:02:02;;;;;;;0.33;0.33;;;14.60;52.10;;;;;;5012793;28;20217;-59
2024/04/02 05:04:28;;;;;;;0.47;0.43;;;14.60;52.10;;;;;;5019925;28;20217;-59
2024/04/02 05:06:54;;;;;;;0.40;0.40;;;14.60;52.10;;;;;;5020814;28;20221;-59
2024/04/02 05:09:22;;;;;;;0.60;0.60;;;14.60;52.10;;;;;;5021765;28;20666;-59
2024/04/02 05:11:48;;;;;;;0.50;0.50;;;14.60;52.10;;;;;;5025600;28;20662;-59
2024/04/02 05:14:14;;;;;;;0.50;0.50;;;14.60;52.10;;;;;;5024601;28;20205;-59
2024/04/02 05:16:42;;;;;;;2.13;0.67;;;14.60;52.10;;;;;;5015988;28;20198;-59
2024/04/02 05:19:08;;;;;;;1.83;0.70;;;14.60;52.10;;;;;;5022188;28;20237;-59
2024/04/02 05:21:35;;;;;;;0.40;0.40;;;14.60;52.00;;;;;;5016173;28;20257;-59
2024/04/02 05:24:00;;;;;;;0.40;0.40;;;14.60;52.10;;;;;;5025938;28;20540;-59
2024/04/02 05:26:29;;;;;;;0.43;0.43;;;14.60;52.00;;;;;;5008999;28;20241;-59
2024/04/02 05:28:54;;;;;;;0.67;0.50;;;14.60;52.00;;;;;;5020942;28;20202;-59
2024/04/02 05:31:21;;;;;;;0.50;0.50;;;14.60;52.10;;;;;;5020821;28;20229;-59
2024/04/02 05:33:47;;;;;;;0.40;0.40;;;14.60;52.10;;;;;;5019815;28;20200;-59
2024/04/02 05:36:14;;;;;;;0.97;0.40;;;14.60;52.00;;;;;;5016403;28;20296;-59
2024/04/02 05:38:39;;;;;;;0.60;0.50;;;14.60;52.00;;;;;;5015965;28;20202;-58
2024/04/02 05:41:06;;;;;;;0.90;0.50;;;14.60;52.10;;;;;;5015209;28;20236;-59
2024/04/02 05:43:33;;;;;;;1.80;0.80;;;14.60;52.00;;;;;;5031435;28;20572;-59
2024/04/02 05:46:00;;;;;;;1.07;0.70;;;14.60;52.10;;;;;;5020292;28;20268;-58
2024/04/02 05:48:26;;;;;;;4.93;1.10;;;14.60;52.20;;;;;;5011607;28;20239;-57
2024/04/02 05:50:54;;;;;;;1.60;0.70;;;14.60;52.20;;;;;;5025896;28;20225;-59
2024/04/02 05:53:20;;;;;;;2.00;0.90;;;14.60;52.30;;;;;;5027628;28;20229;-58
2024/04/02 05:55:47;;;;;;;1.50;0.60;;;14.60;52.30;;;;;;5015405;28;20286;-58
2024/04/02 05:58:13;;;;;;;1.53;0.70;;;14.60;52.20;;;;;;5020600;28;20199;-59
2024/04/02 06:00:41;;;;;;;1.30;0.70;;;14.60;52.20;;;;;;5018867;28;20696;-59
2024/04/02 06:03:07;;;;;;;0.83;0.50;;;14.60;52.20;;;;;;5005618;28;20224;-59
2024/04/02 06:05:34;;;;;;;1.47;0.60;;;14.60;52.20;;;;;;5020201;28;20651;-59
2024/04/02 06:08:01;;;;;;;3.83;0.90;;;14.60;52.20;;;;;;5024794;28;20312;-59
2024/04/02 06:10:27;;;;;;;2.23;0.63;;;14.60;52.20;;;;;;5013177;28;20230;-58
2024/04/02 06:12:54;;;;;;;0.87;0.40;;;14.60;52.20;;;;;;5018733;28;20237;-59
2024/04/02 06:15:21;;;;;;;1.93;0.50;;;14.60;52.20;;;;;;5023480;28;20209;-59
2024/04/02 06:17:49;;;;;;;1.90;0.60;;;14.60;52.10;;;;;;5027217;28;20278;-59
2024/04/02 06:20:15;;;;;;;0.50;0.47;;;14.60;52.10;;;;;;5019281;28;20226;-59
2024/04/02 06:22:42;;;;;;;1.30;0.50;;;14.60;52.00;;;;;;5018834;28;20655;-59
2024/04/02 06:25:07;;;;;;;0.80;0.60;;;14.70;52.00;;;;;;5015598;28;20214;-59
2024/04/02 06:27:34;;;;;;;2.10;0.63;;;14.70;51.90;;;;;;5021109;28;20228;-59
2024/04/02 06:30:00;;;;;;;0.60;0.60;;;14.80;51.80;;;;;;5023572;28;20603;-59
2024/04/02 06:32:27;;;;;;;0.80;0.60;;;14.80;51.60;;;;;;5022943;28;20216;-59
2024/04/02 06:34:54;;;;;;;2.57;0.63;;;14.90;51.50;;;;;;5018892;28;20591;-59
2024/04/02 06:37:20;;;;;;;2.87;0.70;;;15.00;51.50;;;;;;5018934;28;20201;-59
2024/04/02 06:39:46;;;;;;;0.50;0.50;;;15.00;51.50;;;;;;5023233;23;20213;31
2024/04/02 06:42:13;;;;;;;1.57;0.50;;;15.00;51.00;;;;;;5078458;28;20221;-58
2024/04/02 06:44:39;;;;;;;2.03;0.70;;;15.00;50.80;;;;;;5076544;28;20210;-58
2024/04/02 06:47:05;;;;;;;1.10;0.70;;;14.90;50.90;;;;;;5072541;28;20218;-58
2024/04/02 06:49:31;;;;;;;1.10;0.67;;;14.90;51.20;;;;;;5073571;28;20219;-59
2024/04/02 06:51:59;;;;;;;2.10;0.50;;;14.90;51.40;;;;;;5078953;28;20227;-59
2024/04/02 06:54:25;;;;;;;1.80;0.60;;;14.90;51.60;;;;;;5080258;28;20212;-59
2024/04/02 06:56:52;;;;;;;1.17;0.50;;;14.90;51.80;;;;;;5077440;28;20199;-59
2024/04/02 06:59:18;;;;;;;0.77;0.50;;;14.90;51.90;;;;;;5078302;28;20210;-59
2024/04/02 07:01:44;;;;;;;1.93;0.60;;;14.90;51.90;;;;;;5072048;28;20232;-58
2024/04/02 07:04:10;;;;;;;2.83;0.77;;;14.80;51.80;;;;;;5076660;28;20208;-59
2024/04/02 07:06:38;;;;;;;8.90;0.93;;;14.90;52.00;;;;;;5081117;28;20219;-59
2024/04/02 07:09:05;;;;;;;0.70;0.70;;;14.90;52.00;;;;;;5080817;28;20216;-58
2024/04/02 07:11:32;;;;;;;1.80;0.70;;;14.90;52.10;;;;;;5092165;28;20624;-59
2024/04/02 07:13:58;;;;;;;2.10;0.60;;;14.80;52.10;;;;;;5089900;28;20207;-59
2024/04/02 07:16:25;;;;;;;0.77;0.60;;;14.80;52.00;;;;;;5094427;28;20200;-63
2024/04/02 07:18:50;;;;;;;1.07;0.43;;;14.80;52.00;;;;;;5083930;28;20207;-59
2024/04/02 07:21:17;;;;;;;2.17;0.70;;;14.80;52.10;;;;;;5079948;28;20219;-59
2024/04/02 07:23:43;;;;;;;0.77;0.37;;;14.80;52.00;;;;;;5086364;28;20218;-59
2024/04/02 07:26:11;;;;;;;0.67;0.40;;;14.80;52.70;;;;;;5080246;28;20204;-59
2024/04/02 07:28:37;;;;;;;1.60;0.63;;;14.80;52.00;;;;;;5073062;28;20231;-59
2024/04/02 07:31:04;;;;;;;0.80;0.70;;;14.80;52.00;;;;;;5089829;28;20218;-59
2024/04/02 07:33:29;;;;;;;1.90;0.73;;;14.80;52.10;;;;;;5084303;28;20203;-59
2024/04/02 07:35:57;;;;;;;4.47;0.63;;;14.80;52.10;;;;;;5085551;28;20206;-59
2024/04/02 07:38:23;;;;;;;1.10;0.70;;;14.80;51.80;;;;;;5093239;28;20232;-59
2024/04/02 07:40:50;;;;;;;1.13;0.73;;;14.80;52.20;;;;;;5082508;28;20616;-59
2024/04/02 07:43:17;;;;;;;0.73;0.70;;;14.80;51.40;;;;;;5088450;28;20289;-59
2024/04/02 07:45:51;;;;;;;1.50;0.43;;;14.80;51.40;;;;;;5092891;28;20218;-59
2024/04/02 07:48:17;;;;;;;1.60;0.70;;;14.80;51.50;;;;;;5097448;28;20221;-59
2024/04/02 07:50:44;;;;;;;2.07;0.67;;;14.80;51.60;;;;;;5082328;28;20233;-59
2024/04/02 07:53:10;;;;;;;0.63;0.60;;;14.80;51.70;;;;;;5081614;28;20209;-59
2024/04/02 07:55:37;;;;;;;2.90;0.57;;;14.80;51.80;;;;;;5084406;28;20215;-60
2024/04/02 07:58:03;;;;;;;1.20;0.60;;;14.80;51.80;;;;;;5088507;28;20201;-60
2024/04/02 08:00:32;;;;;;;3.63;0.60;;;14.80;51.80;;;;;;5085754;28;20227;-59
2024/04/02 08:02:58;;;;;;;1.80;0.60;;;14.80;51.80;;;;;;5091566;28;20261;-59
2024/04/02 08:05:25;;;;;;;0.40;0.40;;;14.80;51.80;;;;;;5075616;28;20208;-59
2024/04/02 08:07:51;;;;;;;2.83;0.73;;;14.80;51.80;;;;;;5085271;28;20228;-59
2024/04/02 08:10:18;;;;;;;1.63;0.70;;;14.80;51.80;;;;;;5090217;28;20225;-59
2024/04/02 08:12:44;;;;;;;2.60;0.50;;;14.80;51.90;;;;;;5086829;28;20296;-59
2024/04/02 08:15:11;;;;;;;1.20;0.53;;;14.80;51.90;;;;;;5089594;28;20238;-59
2024/04/02 08:17:38;;;;;;;1.40;0.57;;;14.80;51.90;;;;;;5085343;28;20657;-59
2024/04/02 08:20:06;;;;;;;3.07;0.67;;;14.90;52.10;;;;;;5076836;28;20231;-59
2024/04/02 08:22:31;;;;;;;0.80;0.50;;;14.80;52.00;;;;;;5084129;28;20717;-58
2024/04/02 08:24:59;;;;;;;2.73;0.60;;;14.80;52.10;;;;;;5073773;28;20209;-59
2024/04/02 08:27:25;;;;;;;2.93;0.80;;;14.80;52.20;;;;;;5073165;28;20228;-60
2024/04/02 08:29:51;;;;;;;3.40;0.87;;;14.80;52.20;;;;;;5073849;28;20212;-58
2024/04/02 08:32:17;;;;;;;9.27;1.57;;;14.90;52.20;;;;;;5078990;28;20563;-58
2024/04/02 08:34:46;;;;;;;7.50;1.60;;;14.80;52.30;;;;;;5075109;28;20212;-59
2024/04/02 08:37:11;;;;;;;9.10;2.00;;;14.90;52.30;;;;;;5091826;28;20208;-57
2024/04/02 08:39:40;;;;;;;17.57;3.00;;;14.90;52.30;;;;;;5089197;28;20202;-58
2024/04/02 08:42:06;;;;;;;12.80;2.67;;;14.90;52.20;;;;;;5077654;28;20242;-58
2024/04/02 08:44:34;;;;;;;15.70;2.47;;;14.90;52.10;;;;;;5073695;28;20243;-58
2024/04/02 08:47:00;;;;;;;5.80;2.43;;;14.90;52.10;;;;;;5090815;28;20227;-58
2024/04/02 08:49:27;;;;;;;11.00;2.17;;;14.90;52.00;;;;;;5087229;28;20203;-58
2024/04/02 08:51:54;;;;;;;11.53;2.50;;;14.90;52.00;;;;;;5085302;27;20230;-58
2024/04/02 08:54:21;;;;;;;9.50;2.30;;;14.90;51.90;;;;;;5092023;28;20228;-57
2024/04/02 08:56:48;;;;;;;8.77;2.03;;;14.90;51.90;;;;;;5077056;28;20208;-57
2024/04/02 08:59:15;;;;;;;11.83;2.30;;;14.90;51.90;;;;;;5083413;28;20256;-58
2024/04/02 09:01:41;;;;;;;11.57;2.17;;;14.90;51.90;;;;;;5094914;27;20592;-58
2024/04/02 09:04:09;;;;;;;13.67;2.10;;;14.90;51.90;;;;;;5092012;28;20206;-57
2024/04/02 09:06:35;;;;;;;7.67;1.67;;;14.90;51.70;;;;;;5082316;28;20295;-57
2024/04/02 09:09:05;;;;;;;7.37;1.70;;;14.90;50.20;;;;;;5095059;28;20269;-57
2024/04/02 09:11:32;;;;;;;6.00;1.60;;;15.00;50.30;;;;;;5082188;28;20585;-58
2024/04/02 09:14:00;;;;;;;7.27;1.70;;;15.00;50.60;;;;;;5087965;28;20201;-58
2024/04/02 09:16:30;;;;;;;5.17;1.50;;;15.00;50.90;;;;;;5085990;28;20205;-58
2024/04/02 09:18:59;;;;;;;6.30;1.80;;;15.00;50.90;;;;;;5087665;28;20203;-58
2024/04/02 09:21:26;;;;;;;6.67;1.40;;;15.00;51.00;;;;;;5072760;28;20563;-58
2024/04/02 09:23:53;;;;;;;5.60;1.50;;;15.00;51.10;;;;;;5072909;28;20214;-57
2024/04/02 09:26:22;;;;;;;4.47;1.30;;;15.00;51.10;;;;;;5078298;28;20208;-58
2024/04/02 09:28:49;;;;;;;4.80;1.00;;;15.00;49.80;;;;;;5092588;28;20232;-58
2024/04/02 09:31:15;;;;;;;13.40;1.30;;;14.90;48.40;;;;;;5092590;28;20250;-58
2024/04/02 09:33:42;;;;;;;8.37;1.30;;;14.90;47.20;;;;;;5091870;28;20202;-58
2024/04/02 09:36:13;;;;;;;4.93;1.20;;;14.90;48.80;;;;;;5096249;28;20558;-57
2024/04/02 09:38:42;;;;;;;5.07;1.10;;;14.90;49.40;;;;;;5088872;28;20199;-58
2024/04/02 09:41:10;;;;;;;5.97;1.67;;;14.90;49.60;;;;;;5080541;28;20242;-58
2024/04/02 09:43:42;;;;;;;4.33;1.50;;;14.90;49.60;;;;;;5089227;28;20215;-58
2024/04/02 09:46:08;;;;;;;3.63;1.10;;;14.90;49.90;;;;;;5072022;28;20588;-58
2024/04/02 09:48:39;;;;;;;8.20;1.33;;;14.90;50.20;;;;;;5078258;28;20252;-58
2024/04/02 09:51:06;;;;;;;3.73;1.30;;;14.90;50.30;;;;;;5083928;28;20696;-58
2024/04/02 09:53:35;;;;;;;4.77;1.47;;;14.90;50.40;;;;;;5075942;28;20564;-58
2024/04/02 09:56:01;;;;;;;7.70;1.43;;;14.90;50.50;;;;;;5079714;28;20197;-58
2024/04/02 09:58:28;;;;;;;3.27;1.23;;;14.90;50.50;;;;;;5080308;28;20200;-58
2024/04/02 10:00:56;;;;;;;5.33;1.33;;;14.90;51.20;;;;;;5082689;28;20238;-58
2024/04/02 10:03:27;;;;;;;2.50;1.10;;;14.90;50.60;;;;;;5086147;28;20199;-58
2024/04/02 10:06:01;;;;;;;3.13;1.10;;;14.90;50.60;;;;;;5075724;28;20211;-58
2024/04/02 10:08:28;;;;;;;1.97;1.10;;;14.90;50.70;;;;;;5073158;28;20257;-58
2024/04/02 10:10:55;;;;;;;3.87;1.60;;;14.90;50.70;;;;;;5082245;28;20238;-58
2024/04/02 10:13:22;;;;;;;5.67;1.37;;;14.90;50.60;;;;;;5072121;28;20205;-58
2024/04/02 10:15:52;;;;;;;3.87;1.20;;;14.90;50.70;;;;;;5071804;28;20223;-58
2024/04/02 10:18:21;;;;;;;4.17;1.07;;;14.90;50.60;;;;;;5077140;28;20200;-58
2024/04/02 10:20:55;;;;;;;4.20;1.10;;;14.90;50.60;;;;;;5071844;28;20225;-58
2024/04/02 10:23:23;;;;;;;2.60;1.13;;;14.90;50.60;;;;;;5072196;28;20230;-58
2024/04/02 10:25:49;;;;;;;9.83;1.17;;;14.90;50.60;;;;;;5071274;28;20216;-59
2024/04/02 10:28:24;;;;;;;3.23;1.00;;;14.90;50.50;;;;;;5071584;28;20224;-58
2024/04/02 10:30:50;;;;;;;6.13;1.17;;;15.00;50.50;;;;;;5071892;28;20232;-58
2024/04/02 10:33:20;;;;;;;4.00;1.27;;;15.00;50.50;;;;;;5082161;28;20214;-58
2024/04/02 10:35:46;;;;;;;4.50;1.20;;;15.00;50.40;;;;;;5071404;28;20208;-58
2024/04/02 10:38:13;;;;;;;2.07;1.13;;;15.00;50.40;;;;;;5071545;28;20189;-58
2024/04/02 10:40:39;;;;;;;1.80;0.80;;;15.10;50.40;;;;;;5071226;28;20252;-58
2024/04/02 10:43:06;;;;;;;3.50;1.03;;;15.10;50.40;;;;;;5071933;28;20282;-58
2024/04/02 10:45:32;;;;;;;4.60;1.27;;;15.10;50.30;;;;;;5073170;28;20205;-59
2024/04/02 10:47:58;;;;;;;1.87;0.90;;;15.10;50.30;;;;;;5079532;28;20600;-58
2024/04/02 10:50:26;;;;;;;5.47;1.00;;;15.10;50.30;;;;;;5071614;28;20575;-58
2024/04/02 10:52:53;;;;;;;2.30;0.90;;;15.10;50.40;;;;;;5071373;28;20643;-58
2024/04/02 10:55:19;;;;;;;1.70;0.90;;;15.10;50.40;;;;;;5071775;28;20563;-58
2024/04/02 10:57:46;;;;;;;3.33;0.97;;;15.10;51.10;;;;;;5071009;28;20204;-58
2024/04/02 11:00:13;;;;;;;1.73;1.00;;;15.10;50.40;;;;;;5071391;28;20315;-58
2024/04/02 11:02:42;;;;;;;2.87;0.90;;;15.10;50.40;;;;;;5081092;28;20204;-58
2024/04/02 11:05:13;;;;;;;3.27;1.13;;;15.10;50.40;;;;;;5073184;28;20230;-58
2024/04/02 11:07:42;;;;;;;2.17;0.90;;;15.10;50.30;;;;;;5074822;28;20278;-58
2024/04/02 11:10:08;;;;;;;2.73;0.90;;;15.10;50.30;;;;;;5075508;28;20220;-58
2024/04/02 11:12:35;;;;;;;2.90;1.10;;;15.10;50.30;;;;;;5075539;28;20205;-58
2024/04/02 11:15:01;;;;;;;1.93;0.70;;;15.10;50.30;;;;;;5077972;28;20219;-58
2024/04/02 11:17:29;;;;;;;2.10;0.80;;;15.10;50.30;;;;;;5080180;28;20239;-58
2024/04/02 11:19:56;;;;;;;2.63;0.80;;;15.20;50.30;;;;;;5083175;28;20208;-58
2024/04/02 11:25:13;;;;;;;1.33;0.70;;;15.20;50.20;;;;;;5074676;28;20314;-58
2024/04/02 11:27:40;;;;;;;2.03;1.10;;;15.20;50.30;;;;;;5074042;28;20255;-59
2024/04/02 11:30:07;;;;;;;0.50;0.50;;;15.20;50.30;;;;;;5078742;28;20228;-58
2024/04/02 11:32:35;;;;;;;1.47;0.67;;;15.10;50.30;;;;;;5079809;28;20680;-58
2024/04/02 11:35:03;;;;;;;1.27;0.70;;;15.20;50.30;;;;;;5074587;28;20213;-59
2024/04/02 11:37:31;;;;;;;2.67;0.80;;;15.20;50.30;;;;;;5074470;28;20208;-59
2024/04/02 11:39:57;;;;;;;1.67;0.93;;;15.20;50.20;;;;;;5074390;28;20296;-58
2024/04/02 11:42:27;;;;;;;0.90;0.70;;;15.20;50.20;;;;;;5074766;28;20247;-59
2024/04/02 11:44:54;;;;;;;4.23;0.90;;;15.20;50.20;;;;;;5088907;28;20211;-58
2024/04/02 11:47:21;;;;;;;0.97;0.50;;;15.20;50.30;;;;;;5094007;28;20197;-58
2024/04/02 11:49:47;;;;;;;1.33;0.73;;;15.20;50.20;;;;;;5084579;28;20283;-58
2024/04/02 11:52:14;;;;;;;0.97;0.70;;;15.20;50.30;;;;;;5084264;28;20719;-59
2024/04/02 11:54:40;;;;;;;4.57;0.80;;;15.20;50.30;;;;;;5082877;28;20212;-58
2024/04/02 12:00:07;;;;;;;2.67;0.70;;;15.20;50.30;;;;;;5080179;28;20207;-59
2024/04/02 12:02:34;;;;;;;3.10;2.30;;;15.20;48.20;;;;;;5091859;28;20207;-59
2024/04/02 12:05:01;;;;;;;4.53;1.20;;;15.30;48.00;;;;;;5077376;28;20663;-58
2024/04/02 12:07:28;;;;;;;1.27;0.70;;;15.30;47.10;;;;;;5088036;28;20214;-59
2024/04/02 12:09:56;;;;;;;0.57;0.57;;;15.30;45.90;;;;;;5097447;28;20291;-59
2024/04/02 12:12:22;;;;;;;4.87;1.03;;;15.30;45.10;;;;;;5088273;28;20204;-60
2024/04/02 12:14:49;;;;;;;0.60;0.60;;;15.30;44.40;;;;;;5088442;28;20233;-59
2024/04/02 12:17:16;;;;;;;1.40;0.50;;;15.30;44.60;;;;;;5096223;28;20196;-60
2024/04/02 12:19:43;;;;;;;1.17;0.80;;;15.30;44.90;;;;;;5081607;28;20236;-60
2024/04/02 12:22:09;;;;;;;5.27;1.13;;;15.30;45.10;;;;;;5087748;28;20234;-59
2024/04/02 12:24:37;;;;;;;4.83;0.80;;;15.30;45.40;;;;;;5074187;28;20650;-60
2024/04/02 12:27:03;;;;;;;3.67;0.77;;;15.30;45.60;;;;;;5090883;28;20211;-60
2024/04/02 12:29:30;;;;;;;0.83;0.70;;;15.30;45.70;;;;;;5087173;28;20224;-60
2024/04/02 12:31:55;;;;;;;3.83;0.50;;;15.30;45.40;;;;;;5098342;28;20559;-60
2024/04/02 12:34:23;;;;;;;2.10;0.70;;;15.30;45.20;;;;;;5080726;28;20211;-59
2024/04/02 12:36:49;;;;;;;2.30;0.50;;;15.30;45.10;;;;;;5088601;28;20214;-59
2024/04/02 12:39:16;;;;;;;1.53;0.50;;;15.20;45.40;;;;;;5073688;28;20199;-59
2024/04/02 12:41:42;;;;;;;2.00;0.60;;;15.30;45.70;;;;;;5075033;28;20610;-59
2024/04/02 12:44:09;;;;;;;2.43;0.50;;;15.20;45.30;;;;;;5079497;28;20288;-59
2024/04/02 12:46:35;;;;;;;0.70;0.40;;;15.20;45.20;;;;;;5084536;28;20200;-68
2024/04/02 12:49:06;;;;;;;0.70;0.43;;;15.20;45.30;;;;;;5077567;28;20570;-58